sensor_id;sensor_type;location;lat;lon;timestamp;pressure;altitude;pressure_sealevel;temperature;humidity
25664;BME280;13522;50.018;20.014;2022-09-09T03:58:57;98580.55;;;16.75;100.00
25664;BME280;13522;50.018;20.014;2022-09-09T04:02:09;98586.72;;;16.76;100.00
25664;BME280;13522;50.018;20.014;2022-09-09T04:05:33;98590.34;;;16.68;100.00
25664;BME280;13522;50.018;20.014;2022-09-09T04:09:13;98595.70;;;16.68;100.00
25664;BME280;13522;50.018;20.014;2022-09-09T04:12:26;98593.22;;;16.67;100.00
25664;BME280;13522;50.018;20.014;2022-09-09T04:15:54;98589.89;;;16.65;100.00
25664;BME280;13522;50.018;20.014;2022-09-09T04:19:07;98595.64;;;16.62;100.00
25664;BME280;13522;50.018;20.014;2022-09-09T04:22:19;98603.84;;;16.60;100.00
25664;BME280;13522;50.018;20.014;2022-09-09T04:25:31;98593.50;;;16.57;100.00
25664;BME280;13522;50.018;20.014;2022-09-09T04:28:43;98591.66;;;16.58;100.00
25664;BME280;13522;50.018;20.014;2022-09-09T04:32:04;98589.98;;;16.57;100.00
25664;BME280;13522;50.018;20.014;2022-09-09T04:35:17;98585.45;;;16.57;100.00
25664;BME280;13522;50.018;20.014;2022-09-09T04:38:29;98586.66;;;16.55;100.00
25664;BME280;13522;50.018;20.014;2022-09-09T04:41:41;98591.66;;;16.58;100.00
25664;BME280;13522;50.018;20.014;2022-09-09T04:44:53;98591.47;;;16.59;100.00
25664;BME280;13522;50.018;20.014;2022-09-09T04:48:06;98600.16;;;16.61;100.00
25664;BME280;13522;50.018;20.014;2022-09-09T04:51:30;98596.28;;;16.64;100.00
25664;BME280;13522;50.018;20.014;2022-09-09T04:54:43;98597.84;;;16.73;100.00
25664;BME280;13522;50.018;20.014;2022-09-09T04:58:02;98604.95;;;16.80;100.00
25664;BME280;13522;50.018;20.014;2022-09-09T05:01:16;98605.59;;;16.82;100.00
25664;BME280;13522;50.018;20.014;2022-09-09T05:04:32;98596.80;;;16.88;100.00
25664;BME280;13522;50.018;20.014;2022-09-09T05:07:46;98607.81;;;16.93;100.00
25664;BME280;13522;50.018;20.014;2022-09-09T05:15:08;98615.72;;;17.16;100.00
25664;BME280;13522;50.018;20.014;2022-09-09T05:18:21;98606.82;;;17.15;100.00
25664;BME280;13522;50.018;20.014;2022-09-09T05:21:46;98612.84;;;17.17;100.00
25664;BME280;13522;50.018;20.014;2022-09-09T05:25:27;98609.98;;;17.19;100.00
25664;BME280;13522;50.018;20.014;2022-09-09T05:28:47;98605.63;;;17.18;100.00
25664;BME280;13522;50.018;20.014;2022-09-09T05:32:46;98610.27;;;17.09;100.00
25664;BME280;13522;50.018;20.014;2022-09-09T05:36:28;98615.18;;;17.06;100.00
25664;BME280;13522;50.018;20.014;2022-09-09T05:40:10;98617.22;;;17.04;100.00
25664;BME280;13522;50.018;20.014;2022-09-09T05:43:51;98623.03;;;17.07;100.00
25664;BME280;13522;50.018;20.014;2022-09-09T05:47:32;98623.03;;;17.07;100.00
25664;BME280;13522;50.018;20.014;2022-09-09T05:54:49;98615.54;;;17.53;100.00
25664;BME280;13522;50.018;20.014;2022-09-09T05:58:30;98620.09;;;18.23;100.00
25664;BME280;13522;50.018;20.014;2022-09-09T06:02:11;98617.34;;;19.12;100.00
25664;BME280;13522;50.018;20.014;2022-09-09T06:12:54;98628.78;;;20.53;100.00
25664;BME280;13522;50.018;20.014;2022-09-09T06:16:35;98635.34;;;21.03;100.00
25664;BME280;13522;50.018;20.014;2022-09-09T06:24:31;98633.55;;;21.72;95.93
25664;BME280;13522;50.018;20.014;2022-09-09T06:28:12;98628.66;;;21.94;94.47
25664;BME280;13522;50.018;20.014;2022-09-09T06:32:12;98614.74;;;22.15;91.27
25664;BME280;13522;50.018;20.014;2022-09-09T06:35:38;98620.06;;;22.28;89.87
25664;BME280;13522;50.018;20.014;2022-09-09T06:39:19;98611.53;;;22.49;90.00
25664;BME280;13522;50.018;20.014;2022-09-09T06:42:44;98629.36;;;22.57;89.66
25664;BME280;13522;50.018;20.014;2022-09-09T06:46:29;98623.84;;;22.88;87.12
25664;BME280;13522;50.018;20.014;2022-09-09T06:49:43;98618.66;;;23.22;86.09
25664;BME280;13522;50.018;20.014;2022-09-09T06:53:11;98620.54;;;23.70;84.30
25664;BME280;13522;50.018;20.014;2022-09-09T06:56:26;98617.70;;;23.65;83.35
25664;BME280;13522;50.018;20.014;2022-09-09T06:59:49;98615.86;;;23.77;84.51
25664;BME280;13522;50.018;20.014;2022-09-09T07:03:01;98619.89;;;23.86;83.37
25664;BME280;13522;50.018;20.014;2022-09-09T07:06:16;98616.71;;;24.30;81.02
25664;BME280;13522;50.018;20.014;2022-09-09T07:09:30;98616.66;;;24.07;79.97
25664;BME280;13522;50.018;20.014;2022-09-09T07:12:41;98618.45;;;24.25;80.45
25664;BME280;13522;50.018;20.014;2022-09-09T07:15:53;98623.52;;;24.21;78.45
25664;BME280;13522;50.018;20.014;2022-09-09T07:19:05;98626.63;;;24.59;77.48
25664;BME280;13522;50.018;20.014;2022-09-09T07:22:18;98614.67;;;25.07;77.00
25664;BME280;13522;50.018;20.014;2022-09-09T07:25:30;98621.55;;;24.63;75.41
25664;BME280;13522;50.018;20.014;2022-09-09T07:28:42;98617.39;;;25.07;75.63
25664;BME280;13522;50.018;20.014;2022-09-09T07:31:55;98609.32;;;25.63;74.68
25664;BME280;13522;50.018;20.014;2022-09-09T07:35:10;98608.11;;;25.31;74.81
25664;BME280;13522;50.018;20.014;2022-09-09T07:38:22;98614.72;;;25.35;74.50
25664;BME280;13522;50.018;20.014;2022-09-09T07:41:36;98619.56;;;24.81;76.45
25664;BME280;13522;50.018;20.014;2022-09-09T07:44:50;98618.06;;;25.14;73.65
25664;BME280;13522;50.018;20.014;2022-09-09T07:48:04;98610.88;;;25.59;72.13
25664;BME280;13522;50.018;20.014;2022-09-09T07:51:18;98617.03;;;25.99;69.62
25664;BME280;13522;50.018;20.014;2022-09-09T07:54:31;98625.33;;;26.21;68.53
25664;BME280;13522;50.018;20.014;2022-09-09T07:57:44;98615.53;;;26.36;68.63
25664;BME280;13522;50.018;20.014;2022-09-09T08:00:57;98617.08;;;26.49;67.07
25664;BME280;13522;50.018;20.014;2022-09-09T08:04:10;98611.94;;;26.69;67.61
25664;BME280;13522;50.018;20.014;2022-09-09T08:07:24;98612.53;;;27.09;64.55
25664;BME280;13522;50.018;20.014;2022-09-09T08:10:36;98611.88;;;27.24;65.48
25664;BME280;13522;50.018;20.014;2022-09-09T08:13:49;98627.69;;;27.65;64.07
25664;BME280;13522;50.018;20.014;2022-09-09T08:17:04;98625.62;;;28.31;62.15
25664;BME280;13522;50.018;20.014;2022-09-09T08:20:17;98621.20;;;28.24;61.92
25664;BME280;13522;50.018;20.014;2022-09-09T08:23:29;98619.91;;;28.37;61.41
25664;BME280;13522;50.018;20.014;2022-09-09T08:26:43;98635.39;;;27.73;62.14
25664;BME280;13522;50.018;20.014;2022-09-09T08:29:58;98637.77;;;27.91;60.13
25664;BME280;13522;50.018;20.014;2022-09-09T08:33:11;98641.08;;;26.69;62.35
25664;BME280;13522;50.018;20.014;2022-09-09T08:36:25;98639.86;;;26.59;63.56
25664;BME280;13522;50.018;20.014;2022-09-09T08:39:39;98632.90;;;26.69;64.49
25664;BME280;13522;50.018;20.014;2022-09-09T08:42:52;98636.63;;;27.17;63.93
25664;BME280;13522;50.018;20.014;2022-09-09T08:46:09;98636.38;;;27.19;63.64
25664;BME280;13522;50.018;20.014;2022-09-09T08:49:37;98637.20;;;27.19;63.30
25664;BME280;13522;50.018;20.014;2022-09-09T08:52:59;98639.03;;;28.05;61.27
25664;BME280;13522;50.018;20.014;2022-09-09T08:56:16;98633.95;;;27.66;62.21
25664;BME280;13522;50.018;20.014;2022-09-09T08:59:34;98640.50;;;26.67;62.45
25664;BME280;13522;50.018;20.014;2022-09-09T09:02:53;98643.59;;;25.92;64.72
25664;BME280;13522;50.018;20.014;2022-09-09T09:06:13;98652.98;;;25.85;67.93
25664;BME280;13522;50.018;20.014;2022-09-09T09:09:32;98651.30;;;25.67;67.34
25664;BME280;13522;50.018;20.014;2022-09-09T09:12:46;98643.13;;;27.33;62.36
25664;BME280;13522;50.018;20.014;2022-09-09T09:16:02;98647.69;;;27.97;60.92
25664;BME280;13522;50.018;20.014;2022-09-09T09:19:18;98647.28;;;26.81;61.67
25664;BME280;13522;50.018;20.014;2022-09-09T09:22:36;98644.76;;;25.96;64.85
25664;BME280;13522;50.018;20.014;2022-09-09T09:25:52;98652.78;;;25.35;66.28
25664;BME280;13522;50.018;20.014;2022-09-09T09:29:09;98651.18;;;25.11;69.25
25664;BME280;13522;50.018;20.014;2022-09-09T09:32:23;98656.16;;;24.67;68.73
25664;BME280;13522;50.018;20.014;2022-09-09T09:35:36;98654.48;;;24.43;68.05
25664;BME280;13522;50.018;20.014;2022-09-09T09:38:56;98657.95;;;24.85;66.75
25664;BME280;13522;50.018;20.014;2022-09-09T09:42:20;98649.36;;;25.28;66.34
25664;BME280;13522;50.018;20.014;2022-09-09T09:45:40;98640.55;;;25.60;63.79
25664;BME280;13522;50.018;20.014;2022-09-09T09:49:02;98638.64;;;25.21;61.23
25664;BME280;13522;50.018;20.014;2022-09-09T09:52:16;98642.94;;;25.06;63.27
25664;BME280;13522;50.018;20.014;2022-09-09T09:55:33;98639.69;;;25.20;65.55
25664;BME280;13522;50.018;20.014;2022-09-09T09:58:52;98635.89;;;26.17;66.22
25664;BME280;13522;50.018;20.014;2022-09-09T10:02:17;98625.14;;;26.94;59.73
25664;BME280;13522;50.018;20.014;2022-09-09T10:05:36;98624.08;;;27.86;57.27
25664;BME280;13522;50.018;20.014;2022-09-09T10:08:48;98625.11;;;28.07;54.20
25664;BME280;13522;50.018;20.014;2022-09-09T10:12:04;98616.80;;;29.02;51.71
25664;BME280;13522;50.018;20.014;2022-09-09T10:15:29;98621.91;;;28.15;55.83
25664;BME280;13522;50.018;20.014;2022-09-09T10:18:56;98619.72;;;27.37;55.28
25664;BME280;13522;50.018;20.014;2022-09-09T10:22:26;98626.17;;;25.93;57.97
25664;BME280;13522;50.018;20.014;2022-09-09T10:25:58;98639.02;;;24.90;63.29
25664;BME280;13522;50.018;20.014;2022-09-09T10:29:32;98642.67;;;24.26;67.11
25664;BME280;13522;50.018;20.014;2022-09-09T10:33:03;98649.07;;;24.02;69.56
25664;BME280;13522;50.018;20.014;2022-09-09T10:36:22;98647.33;;;24.83;67.54
25664;BME280;13522;50.018;20.014;2022-09-09T10:39:38;98640.91;;;23.90;67.56
25664;BME280;13522;50.018;20.014;2022-09-09T10:42:50;98643.63;;;23.61;65.78
25664;BME280;13522;50.018;20.014;2022-09-09T10:46:09;98647.65;;;23.40;67.33
25664;BME280;13522;50.018;20.014;2022-09-09T10:49:42;98647.75;;;23.63;67.39
25664;BME280;13522;50.018;20.014;2022-09-09T10:52:53;98636.44;;;24.72;65.54
25664;BME280;13522;50.018;20.014;2022-09-09T10:56:10;98631.28;;;25.22;62.71
25664;BME280;13522;50.018;20.014;2022-09-09T10:59:43;98626.63;;;25.45;60.57
25664;BME280;13522;50.018;20.014;2022-09-09T11:03:01;98611.97;;;26.19;58.44
25664;BME280;13522;50.018;20.014;2022-09-09T11:06:16;98625.23;;;26.66;56.51
25664;BME280;13522;50.018;20.014;2022-09-09T11:09:32;98621.98;;;27.23;56.83
25664;BME280;13522;50.018;20.014;2022-09-09T11:12:50;98620.86;;;27.41;52.49
25664;BME280;13522;50.018;20.014;2022-09-09T11:16:14;98624.27;;;26.72;51.34
25664;BME280;13522;50.018;20.014;2022-09-09T11:19:32;98630.56;;;25.94;55.94
25664;BME280;13522;50.018;20.014;2022-09-09T11:22:45;98630.59;;;26.11;54.82
25664;BME280;13522;50.018;20.014;2022-09-09T11:26:02;98622.53;;;26.16;56.49
25664;BME280;13522;50.018;20.014;2022-09-09T11:33:23;98598.74;;;26.78;49.95
25664;BME280;13522;50.018;20.014;2022-09-09T11:36:54;98618.55;;;26.56;50.15
25664;BME280;13522;50.018;20.014;2022-09-09T11:40:20;98612.27;;;27.11;52.98
25664;BME280;13522;50.018;20.014;2022-09-09T11:43:40;98602.64;;;27.73;49.17
25664;BME280;13522;50.018;20.014;2022-09-09T11:46:53;98610.08;;;28.36;47.24
25664;BME280;13522;50.018;20.014;2022-09-09T11:50:26;98617.56;;;27.39;46.13
25664;BME280;13522;50.018;20.014;2022-09-09T11:53:52;98612.03;;;27.82;46.93
25664;BME280;13522;50.018;20.014;2022-09-09T11:57:15;98608.66;;;28.28;45.19
25664;BME280;13522;50.018;20.014;2022-09-09T12:00:36;98605.58;;;28.20;46.11
25664;BME280;13522;50.018;20.014;2022-09-09T12:03:54;98608.00;;;27.90;47.63
25664;BME280;13522;50.018;20.014;2022-09-09T12:07:31;98607.45;;;28.51;44.60
25664;BME280;13522;50.018;20.014;2022-09-09T12:10:54;98602.42;;;28.70;43.62
25664;BME280;13522;50.018;20.014;2022-09-09T12:14:21;98606.52;;;28.36;44.57
25664;BME280;13522;50.018;20.014;2022-09-09T12:17:41;98608.52;;;28.13;42.13
25664;BME280;13522;50.018;20.014;2022-09-09T12:20:59;98611.30;;;27.92;44.68
25664;BME280;13522;50.018;20.014;2022-09-09T12:24:15;98609.86;;;27.84;45.55
25664;BME280;13522;50.018;20.014;2022-09-09T12:27:33;98607.59;;;27.76;46.32
25664;BME280;13522;50.018;20.014;2022-09-09T12:30:52;98604.41;;;27.84;48.23
25664;BME280;13522;50.018;20.014;2022-09-09T12:34:13;98600.97;;;28.25;46.44
25664;BME280;13522;50.018;20.014;2022-09-09T12:37:34;98606.23;;;28.32;43.51
25664;BME280;13522;50.018;20.014;2022-09-09T12:40:53;98606.55;;;28.41;43.82
25664;BME280;13522;50.018;20.014;2022-09-09T12:44:08;98600.95;;;28.20;45.27
25664;BME280;13522;50.018;20.014;2022-09-09T12:47:23;98613.16;;;27.86;48.12
25664;BME280;13522;50.018;20.014;2022-09-09T12:50:43;98605.93;;;27.75;46.41
25664;BME280;13522;50.018;20.014;2022-09-09T12:53:55;98615.41;;;27.41;46.01
25664;BME280;13522;50.018;20.014;2022-09-09T12:57:12;98608.96;;;27.30;47.37
25664;BME280;13522;50.018;20.014;2022-09-09T13:00:26;98610.50;;;27.21;47.54
25664;BME280;13522;50.018;20.014;2022-09-09T13:03:42;98614.47;;;27.14;47.15
25664;BME280;13522;50.018;20.014;2022-09-09T13:06:55;98611.13;;;27.07;50.07
25664;BME280;13522;50.018;20.014;2022-09-09T13:10:24;98602.11;;;27.06;48.62
25664;BME280;13522;50.018;20.014;2022-09-09T13:13:40;98588.12;;;26.98;47.20
25664;BME280;13522;50.018;20.014;2022-09-09T13:17:02;98585.12;;;26.78;49.76
25664;BME280;13522;50.018;20.014;2022-09-09T13:20:19;98585.12;;;26.78;49.78
25664;BME280;13522;50.018;20.014;2022-09-09T13:23:33;98588.06;;;26.76;49.26
25664;BME280;13522;50.018;20.014;2022-09-09T13:26:55;98580.89;;;26.70;48.58
25664;BME280;13522;50.018;20.014;2022-09-09T13:30:22;98585.58;;;26.36;50.13
25664;BME280;13522;50.018;20.014;2022-09-09T13:33:38;98581.82;;;26.76;50.87
25664;BME280;13522;50.018;20.014;2022-09-09T13:36:50;98577.25;;;26.64;50.98
25664;BME280;13522;50.018;20.014;2022-09-09T13:40:05;98582.07;;;26.57;50.41
25664;BME280;13522;50.018;20.014;2022-09-09T13:43:28;98570.22;;;26.69;50.87
25664;BME280;13522;50.018;20.014;2022-09-09T13:46:44;98568.19;;;26.59;51.61
25664;BME280;13522;50.018;20.014;2022-09-09T13:49:56;98564.38;;;26.77;48.00
25664;BME280;13522;50.018;20.014;2022-09-09T13:53:09;98561.65;;;26.77;48.87
25664;BME280;13522;50.018;20.014;2022-09-09T13:56:21;98559.44;;;26.57;51.07
25664;BME280;13522;50.018;20.014;2022-09-09T13:59:33;98571.28;;;26.46;53.25
25664;BME280;13522;50.018;20.014;2022-09-09T14:02:48;98567.15;;;26.43;51.21
25664;BME280;13522;50.018;20.014;2022-09-09T14:06:00;98560.13;;;25.98;52.45
25664;BME280;13522;50.018;20.014;2022-09-09T14:09:15;98564.23;;;25.84;55.58
25664;BME280;13522;50.018;20.014;2022-09-09T14:12:29;98559.95;;;25.71;55.09
25664;BME280;13522;50.018;20.014;2022-09-09T14:15:41;98572.02;;;25.47;54.03
25664;BME280;13522;50.018;20.014;2022-09-09T14:18:53;98564.33;;;25.44;55.60
25664;BME280;13522;50.018;20.014;2022-09-09T14:22:06;98568.74;;;25.33;56.72
25664;BME280;13522;50.018;20.014;2022-09-09T14:25:18;98564.61;;;25.31;57.67
25664;BME280;13522;50.018;20.014;2022-09-09T14:28:29;98557.30;;;25.20;54.98
25664;BME280;13522;50.018;20.014;2022-09-09T14:31:45;98562.47;;;25.33;54.67
25664;BME280;13522;50.018;20.014;2022-09-09T14:34:57;98556.06;;;25.39;55.84
25664;BME280;13522;50.018;20.014;2022-09-09T14:38:18;98556.72;;;25.18;52.58
25664;BME280;13522;50.018;20.014;2022-09-09T14:41:30;98548.67;;;25.23;55.78
25664;BME280;13522;50.018;20.014;2022-09-09T14:44:42;98545.67;;;25.08;55.39
25664;BME280;13522;50.018;20.014;2022-09-09T14:47:54;98546.30;;;24.86;53.48
25664;BME280;13522;50.018;20.014;2022-09-09T14:51:11;98542.16;;;24.84;53.83
25664;BME280;13522;50.018;20.014;2022-09-09T14:54:25;98550.44;;;24.89;53.34
25664;BME280;13522;50.018;20.014;2022-09-09T14:57:37;98544.55;;;24.80;53.04
25664;BME280;13522;50.018;20.014;2022-09-09T15:00:49;98539.81;;;24.64;52.63
25664;BME280;13522;50.018;20.014;2022-09-09T15:04:03;98533.58;;;24.64;55.22
25664;BME280;13522;50.018;20.014;2022-09-09T15:07:16;98543.16;;;24.78;56.58
25664;BME280;13522;50.018;20.014;2022-09-09T15:10:29;98538.15;;;24.86;56.79
25664;BME280;13522;50.018;20.014;2022-09-09T15:13:42;98534.88;;;24.73;58.28
25664;BME280;13522;50.018;20.014;2022-09-09T15:16:54;98541.48;;;24.77;57.76
25664;BME280;13522;50.018;20.014;2022-09-09T15:20:08;98536.14;;;24.70;60.25
25664;BME280;13522;50.018;20.014;2022-09-09T15:23:22;98540.41;;;24.66;59.89
25664;BME280;13522;50.018;20.014;2022-09-09T15:26:34;98532.03;;;24.56;59.73
25664;BME280;13522;50.018;20.014;2022-09-09T15:29:47;98527.68;;;24.55;59.40
25664;BME280;13522;50.018;20.014;2022-09-09T15:32:58;98521.80;;;24.35;60.81
25664;BME280;13522;50.018;20.014;2022-09-09T15:36:17;98528.89;;;24.36;61.20
25664;BME280;13522;50.018;20.014;2022-09-09T15:39:31;98536.20;;;24.36;61.07
25664;BME280;13522;50.018;20.014;2022-09-09T15:42:43;98539.97;;;24.23;61.45
25664;BME280;13522;50.018;20.014;2022-09-09T15:45:59;98553.89;;;24.15;63.33
25664;BME280;13522;50.018;20.014;2022-09-09T15:49:20;98548.78;;;23.95;62.45
25664;BME280;13522;50.018;20.014;2022-09-09T15:52:33;98544.19;;;23.96;62.97
25664;BME280;13522;50.018;20.014;2022-09-09T15:55:45;98544.04;;;23.91;65.23
25664;BME280;13522;50.018;20.014;2022-09-09T15:58:59;98553.25;;;23.90;65.74
25664;BME280;13522;50.018;20.014;2022-09-09T16:02:12;98554.30;;;23.89;65.51
25664;BME280;13522;50.018;20.014;2022-09-09T16:05:24;98560.55;;;23.78;65.50
25664;BME280;13522;50.018;20.014;2022-09-09T16:08:38;98553.22;;;23.67;66.77
25664;BME280;13522;50.018;20.014;2022-09-09T16:11:51;98555.67;;;23.57;66.31
25664;BME280;13522;50.018;20.014;2022-09-09T16:15:05;98561.53;;;23.54;66.86
25664;BME280;13522;50.018;20.014;2022-09-09T16:18:18;98554.88;;;23.38;67.94
25664;BME280;13522;50.018;20.014;2022-09-09T16:21:32;98549.70;;;23.18;67.56
25664;BME280;13522;50.018;20.014;2022-09-09T16:24:45;98560.50;;;23.07;68.58
25664;BME280;13522;50.018;20.014;2022-09-09T16:27:57;98561.95;;;22.91;69.38
25664;BME280;13522;50.018;20.014;2022-09-09T16:31:10;98561.48;;;22.76;70.42
25664;BME280;13522;50.018;20.014;2022-09-09T16:34:24;98559.20;;;22.55;72.46
25664;BME280;13522;50.018;20.014;2022-09-09T16:37:35;98557.54;;;22.36;74.72
25664;BME280;13522;50.018;20.014;2022-09-09T16:40:48;98562.63;;;22.26;76.76
25664;BME280;13522;50.018;20.014;2022-09-09T16:44:01;98555.13;;;22.28;76.10
25664;BME280;13522;50.018;20.014;2022-09-09T16:47:15;98552.70;;;22.20;76.59
25664;BME280;13522;50.018;20.014;2022-09-09T16:50:32;98556.39;;;22.01;77.79
25664;BME280;13522;50.018;20.014;2022-09-09T16:53:44;98553.69;;;22.01;77.97
25664;BME280;13522;50.018;20.014;2022-09-09T16:56:56;98555.52;;;21.82;78.82
25664;BME280;13522;50.018;20.014;2022-09-09T17:00:10;98553.05;;;21.81;79.28
25664;BME280;13522;50.018;20.014;2022-09-09T17:03:22;98561.55;;;21.78;79.87
25664;BME280;13522;50.018;20.014;2022-09-09T17:06:35;98572.38;;;21.46;80.53
25664;BME280;13522;50.018;20.014;2022-09-09T17:09:47;98563.53;;;21.33;82.14
25664;BME280;13522;50.018;20.014;2022-09-09T17:13:00;98558.98;;;21.27;82.06
25664;BME280;13522;50.018;20.014;2022-09-09T17:19:13;98563.88;;;20.99;83.30
25664;BME280;13522;50.018;20.014;2022-09-09T17:22:28;98559.17;;;20.81;84.37
25664;BME280;13522;50.018;20.014;2022-09-09T17:34:40;98576.58;;;20.92;84.47
25664;BME280;13522;50.018;20.014;2022-09-09T17:38:08;98575.70;;;20.98;84.51
25664;BME280;13522;50.018;20.014;2022-09-09T17:44:20;98583.41;;;20.94;84.07
25664;BME280;13522;50.018;20.014;2022-09-09T17:47:33;98589.27;;;20.85;86.21
25664;BME280;13522;50.018;20.014;2022-09-09T17:50:45;98597.81;;;20.75;88.08
25664;BME280;13522;50.018;20.014;2022-09-09T17:54:06;98602.59;;;20.73;88.54
25664;BME280;13522;50.018;20.014;2022-09-09T17:57:20;98598.27;;;20.59;89.33
25664;BME280;13522;50.018;20.014;2022-09-09T18:00:31;98599.54;;;20.37;88.77
25664;BME280;13522;50.018;20.014;2022-09-09T18:03:44;98602.66;;;20.21;91.00
25664;BME280;13522;50.018;20.014;2022-09-09T18:06:57;98596.43;;;20.14;92.05
25664;BME280;13522;50.018;20.014;2022-09-09T18:10:11;98596.43;;;20.14;93.01
25664;BME280;13522;50.018;20.014;2022-09-09T18:35:08;98628.38;;;20.36;88.57
25664;BME280;13522;50.018;20.014;2022-09-09T18:52:24;98628.77;;;19.74;97.31
25664;BME280;13522;50.018;20.014;2022-09-09T18:55:36;98632.45;;;19.60;96.50
25664;BME280;13522;50.018;20.014;2022-09-09T18:58:59;98628.70;;;19.48;98.06
25664;BME280;13522;50.018;20.014;2022-09-09T19:02:12;98618.49;;;19.37;100.00
25664;BME280;13522;50.018;20.014;2022-09-09T19:05:25;98626.22;;;19.47;100.00
25664;BME280;13522;50.018;20.014;2022-09-09T19:08:38;98629.77;;;19.60;99.68
25664;BME280;13522;50.018;20.014;2022-09-09T19:20:51;98634.92;;;19.49;99.89
25664;BME280;13522;50.018;20.014;2022-09-09T19:24:06;98633.90;;;19.56;100.00
25664;BME280;13522;50.018;20.014;2022-09-09T19:27:20;98640.94;;;19.51;100.00
25664;BME280;13522;50.018;20.014;2022-09-09T19:30:34;98636.36;;;19.51;100.00
25664;BME280;13522;50.018;20.014;2022-09-09T19:34:15;98634.50;;;19.52;100.00
25664;BME280;13522;50.018;20.014;2022-09-09T19:37:55;98624.30;;;19.34;100.00
25664;BME280;13522;50.018;20.014;2022-09-09T19:41:09;98630.80;;;19.12;100.00
25664;BME280;13522;50.018;20.014;2022-09-09T19:44:23;98629.50;;;18.95;100.00
25664;BME280;13522;50.018;20.014;2022-09-09T19:47:36;98626.34;;;18.85;100.00
25664;BME280;13522;50.018;20.014;2022-09-09T19:51:04;98625.08;;;18.81;100.00
25664;BME280;13522;50.018;20.014;2022-09-09T19:54:16;98626.50;;;18.77;100.00
25664;BME280;13522;50.018;20.014;2022-09-09T19:57:29;98622.75;;;18.71;100.00
25664;BME280;13522;50.018;20.014;2022-09-09T20:00:48;98625.39;;;18.65;100.00
25664;BME280;13522;50.018;20.014;2022-09-09T20:04:03;98623.48;;;18.59;100.00
25664;BME280;13522;50.018;20.014;2022-09-09T20:07:15;98630.09;;;18.56;100.00
25664;BME280;13522;50.018;20.014;2022-09-09T20:10:28;98629.91;;;18.58;100.00
25664;BME280;13522;50.018;20.014;2022-09-09T20:14:09;98632.92;;;18.48;100.00
25664;BME280;13522;50.018;20.014;2022-09-09T20:17:31;98636.45;;;18.49;100.00
25664;BME280;13522;50.018;20.014;2022-09-09T20:21:13;98641.75;;;18.42;100.00
25664;BME280;13522;50.018;20.014;2022-09-09T20:24:26;98639.17;;;18.28;100.00
25664;BME280;13522;50.018;20.014;2022-09-09T20:27:38;98643.37;;;18.37;100.00
25664;BME280;13522;50.018;20.014;2022-09-09T20:30:50;98644.33;;;18.50;100.00
25664;BME280;13522;50.018;20.014;2022-09-09T20:34:02;98646.05;;;18.58;100.00
25664;BME280;13522;50.018;20.014;2022-09-09T20:37:15;98647.06;;;18.57;100.00
25664;BME280;13522;50.018;20.014;2022-09-09T20:40:28;98654.65;;;18.47;100.00
25664;BME280;13522;50.018;20.014;2022-09-09T20:44:11;98654.22;;;18.43;100.00
25664;BME280;13522;50.018;20.014;2022-09-09T20:47:39;98650.95;;;18.48;100.00
25664;BME280;13522;50.018;20.014;2022-09-09T20:50:52;98643.25;;;18.45;100.00
25664;BME280;13522;50.018;20.014;2022-09-09T20:54:19;98637.23;;;18.43;100.00
25664;BME280;13522;50.018;20.014;2022-09-09T20:57:34;98646.69;;;18.39;100.00
25664;BME280;13522;50.018;20.014;2022-09-09T21:00:46;98644.00;;;18.39;100.00
25664;BME280;13522;50.018;20.014;2022-09-09T21:03:58;98658.86;;;18.35;100.00
25664;BME280;13522;50.018;20.014;2022-09-09T21:07:39;98658.23;;;18.33;100.00
25664;BME280;13522;50.018;20.014;2022-09-09T21:10:51;98656.17;;;18.35;100.00
25664;BME280;13522;50.018;20.014;2022-09-09T21:14:03;98647.91;;;18.36;100.00
25664;BME280;13522;50.018;20.014;2022-09-09T21:17:15;98651.20;;;18.32;100.00
25664;BME280;13522;50.018;20.014;2022-09-09T21:20:27;98649.93;;;18.28;100.00
25664;BME280;13522;50.018;20.014;2022-09-09T21:23:40;98650.27;;;18.18;100.00
25664;BME280;13522;50.018;20.014;2022-09-09T21:26:52;98654.55;;;18.12;100.00
25664;BME280;13522;50.018;20.014;2022-09-09T21:30:05;98640.67;;;18.09;100.00
25664;BME280;13522;50.018;20.014;2022-09-09T21:33:20;98638.75;;;18.03;100.00
25664;BME280;13522;50.018;20.014;2022-09-09T21:36:34;98635.05;;;18.04;100.00
25664;BME280;13522;50.018;20.014;2022-09-09T21:39:46;98637.74;;;18.04;100.00
25664;BME280;13522;50.018;20.014;2022-09-09T21:42:58;98641.00;;;17.99;100.00
25664;BME280;13522;50.018;20.014;2022-09-09T21:46:38;98637.30;;;18.00;100.00
25664;BME280;13522;50.018;20.014;2022-09-09T21:49:51;98650.91;;;17.99;100.00
25664;BME280;13522;50.018;20.014;2022-09-09T21:53:04;98653.36;;;17.94;100.00
25664;BME280;13522;50.018;20.014;2022-09-09T21:56:18;98644.09;;;17.96;100.00
25664;BME280;13522;50.018;20.014;2022-09-09T21:59:31;98648.42;;;17.97;100.00
25664;BME280;13522;50.018;20.014;2022-09-09T22:02:43;98633.98;;;17.98;100.00
25664;BME280;13522;50.018;20.014;2022-09-09T22:05:57;98623.60;;;17.95;100.00
25664;BME280;13522;50.018;20.014;2022-09-09T22:09:13;98620.27;;;17.93;100.00
25664;BME280;13522;50.018;20.014;2022-09-09T22:12:50;98625.28;;;17.96;100.00
25664;BME280;13522;50.018;20.014;2022-09-09T22:16:13;98628.41;;;18.00;100.00
25664;BME280;13522;50.018;20.014;2022-09-09T22:19:54;98634.15;;;17.97;100.00
25664;BME280;13522;50.018;20.014;2022-09-09T22:23:06;98631.09;;;18.00;100.00
25664;BME280;13522;50.018;20.014;2022-09-09T22:26:19;98622.22;;;17.78;100.00
25664;BME280;13522;50.018;20.014;2022-09-09T22:29:34;98627.83;;;17.83;100.00
25664;BME280;13522;50.018;20.014;2022-09-09T22:32:48;98629.88;;;17.81;100.00